createdAt,value
2022-12-29T00:01:45.131Z,1.40
2022-12-29T00:04:15.353Z,2.00
2022-12-29T00:06:43.945Z,1.38
2022-12-29T00:09:15.473Z,1.45
2022-12-29T00:11:43.611Z,1.58
2022-12-29T00:14:30.849Z,1.60
2022-12-29T00:16:59.134Z,1.40
2022-12-29T00:19:45.570Z,1.58
2022-12-29T00:22:33.838Z,1.70
2022-12-29T00:25:20.650Z,1.65
2022-12-29T00:28:07.543Z,1.50
2022-12-29T00:30:56.112Z,1.85
2022-12-29T00:33:50.949Z,1.75
2022-12-29T00:36:24.852Z,1.85
2022-12-29T00:39:14.997Z,1.77
2022-12-29T00:42:08.599Z,1.88
2022-12-29T00:44:36.141Z,1.80
2022-12-29T00:47:05.460Z,1.73
2022-12-29T00:49:34.255Z,2.10
2022-12-29T00:52:05.862Z,2.20
2022-12-29T00:54:35.660Z,1.95
2022-12-29T00:57:05.266Z,1.98
2022-12-29T00:59:32.855Z,2.67
2022-12-29T01:02:00.415Z,2.08
2022-12-29T01:04:29.524Z,2.28
2022-12-29T01:06:57.013Z,2.22
2022-12-29T01:09:43.560Z,2.58
2022-12-29T01:12:11.371Z,2.22
2022-12-29T01:14:39.554Z,2.38
2022-12-29T01:17:07.545Z,2.20
2022-12-29T01:19:35.095Z,2.25
2022-12-29T01:22:02.764Z,2.45
2022-12-29T01:24:30.276Z,2.40
2022-12-29T01:26:57.800Z,2.42
2022-12-29T01:29:25.324Z,3.08
2022-12-29T01:31:52.946Z,2.63
2022-12-29T01:34:20.551Z,2.60
2022-12-29T01:36:48.131Z,2.97
2022-12-29T01:39:15.745Z,2.90
2022-12-29T01:41:43.788Z,2.90
2022-12-29T01:44:50.029Z,2.40
2022-12-29T01:47:29.761Z,2.88
2022-12-29T01:50:01.358Z,3.05
2022-12-29T01:52:32.965Z,2.85
2022-12-29T01:55:04.813Z,2.58
2022-12-29T01:57:38.237Z,2.35
2022-12-29T02:00:12.963Z,2.47
2022-12-29T02:02:50.202Z,2.10
2022-12-29T02:05:47.207Z,2.17
2022-12-29T02:08:15.081Z,2.28
2022-12-29T02:10:43.917Z,2.50
2022-12-29T02:13:11.540Z,2.33
2022-12-29T02:15:41.609Z,2.00
2022-12-29T02:18:15.122Z,1.90
2022-12-29T02:24:02.268Z,2.28
2022-12-29T02:27:20.564Z,2.00
2022-12-29T02:29:58.542Z,2.15
2022-12-29T02:32:53.709Z,1.98
2022-12-29T02:35:38.545Z,1.75
2022-12-29T02:38:35.733Z,1.83
2022-12-29T02:41:14.301Z,2.40
2022-12-29T02:44:04.988Z,1.80
2022-12-29T02:46:46.918Z,2.10
2022-12-29T02:49:23.882Z,2.25
2022-12-29T02:52:19.206Z,2.30
2022-12-29T02:54:50.331Z,1.98
2022-12-29T02:57:23.843Z,2.00
2022-12-29T02:59:58.403Z,2.38
2022-12-29T03:02:44.584Z,1.58
2022-12-29T03:05:30.261Z,2.05
2022-12-29T03:08:22.031Z,1.98
2022-12-29T03:11:05.823Z,2.25
2022-12-29T03:17:05.703Z,2.15
2022-12-29T03:19:47.003Z,2.63
2022-12-29T03:22:28.521Z,2.28
2022-12-29T03:25:05.455Z,2.65
2022-12-29T03:27:43.493Z,2.15
2022-12-29T03:30:12.495Z,2.30
2022-12-29T03:32:56.486Z,2.38
2022-12-29T03:35:34.103Z,2.33
2022-12-29T03:38:18.485Z,2.10
2022-12-29T03:40:55.043Z,2.85
2022-12-29T03:43:25.464Z,2.45
2022-12-29T03:45:52.954Z,2.33
2022-12-29T03:48:20.513Z,2.35
2022-12-29T03:50:50.384Z,2.50
2022-12-29T03:53:20.514Z,2.22
2022-12-29T03:55:48.341Z,2.03
2022-12-29T03:58:17.119Z,2.55
2022-12-29T04:00:53.420Z,2.00
2022-12-29T04:03:21.115Z,2.50
2022-12-29T04:05:48.630Z,2.35
2022-12-29T04:08:16.427Z,2.00
2022-12-29T04:10:44.885Z,2.20
2022-12-29T04:13:14.238Z,2.40
2022-12-29T04:15:43.669Z,2.30
2022-12-29T04:18:12.705Z,1.80
2022-12-29T04:20:58.806Z,2.28
2022-12-29T04:23:26.547Z,2.05
2022-12-29T04:25:54.516Z,1.90
2022-12-29T04:28:22.058Z,2.03
2022-12-29T04:30:55.503Z,1.80
2022-12-29T04:33:43.236Z,1.70
2022-12-29T04:36:11.815Z,1.55
2022-12-29T04:38:39.869Z,1.73
2022-12-29T04:41:08.623Z,2.28
2022-12-29T04:43:38.752Z,1.88
2022-12-29T04:46:41.598Z,1.90
2022-12-29T04:49:13.121Z,1.77
2022-12-29T04:52:04.014Z,1.48
2022-12-29T04:54:31.713Z,1.70
2022-12-29T04:57:08.487Z,1.80
2022-12-29T04:59:38.749Z,1.45
2022-12-29T05:02:06.559Z,1.48
2022-12-29T05:04:36.078Z,1.27
2022-12-29T05:07:03.781Z,1.48
2022-12-29T05:09:31.398Z,1.20
2022-12-29T05:12:01.390Z,1.25
2022-12-29T05:14:30.383Z,1.55
2022-12-29T05:16:58.151Z,1.40
2022-12-29T05:19:26.909Z,1.20
2022-12-29T05:21:55.503Z,1.80
2022-12-29T05:28:36.083Z,1.50
2022-12-29T05:31:13.000Z,1.30
2022-12-29T05:33:40.807Z,1.48
2022-12-29T05:36:09.770Z,1.50
2022-12-29T05:38:40.783Z,1.65
2022-12-29T05:41:08.326Z,1.27
2022-12-29T05:43:56.092Z,1.40
2022-12-29T05:46:32.823Z,1.73
2022-12-29T05:49:36.470Z,1.60
2022-12-29T05:52:19.207Z,1.50
2022-12-29T05:54:46.819Z,1.70
2022-12-29T05:57:18.080Z,1.40
2022-12-29T05:59:51.458Z,1.63
2022-12-29T06:02:19.103Z,1.25
2022-12-29T06:04:46.723Z,1.50
2022-12-29T06:07:14.367Z,1.38
2022-12-29T06:09:44.639Z,1.50
2022-12-29T06:12:12.452Z,1.63
2022-12-29T06:14:41.830Z,1.30
2022-12-29T06:17:09.410Z,1.55
2022-12-29T06:19:37.401Z,1.30
2022-12-29T06:22:05.871Z,1.30
2022-12-29T06:24:35.852Z,1.23
2022-12-29T06:27:03.643Z,1.33
2022-12-29T06:29:31.212Z,1.33
2022-12-29T06:31:59.453Z,1.75
2022-12-29T06:34:28.307Z,1.42
2022-12-29T06:36:56.118Z,1.33
2022-12-29T06:39:23.729Z,1.40
2022-12-29T06:42:02.807Z,1.58
2022-12-29T06:44:58.717Z,2.15
2022-12-29T06:47:26.208Z,1.30
2022-12-29T06:49:53.728Z,1.42
2022-12-29T06:52:21.365Z,1.75
2022-12-29T06:54:48.871Z,1.65
2022-12-29T06:57:16.408Z,1.90
2022-12-29T06:59:43.955Z,1.70
2022-12-29T07:02:12.607Z,1.75
2022-12-29T07:04:40.220Z,1.73
2022-12-29T07:07:07.810Z,2.03
2022-12-29T07:09:35.296Z,1.63
2022-12-29T07:12:03.111Z,2.28
2022-12-29T07:14:31.108Z,2.08
2022-12-29T07:16:58.826Z,1.90
2022-12-29T07:19:26.293Z,1.67
2022-12-29T07:21:55.869Z,1.70
2022-12-29T07:24:23.347Z,2.10
2022-12-29T07:26:50.950Z,1.70
2022-12-29T07:29:18.619Z,1.65
2022-12-29T07:31:46.368Z,1.80
2022-12-29T07:34:13.848Z,1.98
2022-12-29T07:36:41.668Z,1.48
2022-12-29T07:39:09.334Z,1.38
2022-12-29T07:41:36.988Z,1.70
2022-12-29T07:44:05.007Z,1.50
2022-12-29T07:46:57.616Z,1.30
2022-12-29T07:49:26.476Z,1.38
2022-12-29T07:51:53.959Z,1.90
2022-12-29T07:54:21.600Z,2.25
2022-12-29T07:56:49.302Z,2.20
2022-12-29T07:59:17.007Z,2.00
2022-12-29T08:01:44.651Z,1.90
2022-12-29T08:04:12.609Z,1.80
2022-12-29T08:06:40.206Z,2.05
2022-12-29T08:09:16.432Z,2.17
2022-12-29T08:11:47.559Z,2.05
2022-12-29T08:14:15.083Z,2.38
2022-12-29T08:16:42.692Z,2.10
2022-12-29T08:19:13.025Z,1.85
2022-12-29T08:21:41.135Z,2.20
2022-12-29T08:24:10.298Z,1.90
2022-12-29T08:26:38.027Z,2.00
2022-12-29T08:29:05.591Z,1.65
2022-12-29T08:31:33.222Z,2.00
2022-12-29T08:34:01.350Z,2.20
2022-12-29T08:36:28.848Z,2.28
2022-12-29T08:38:56.418Z,2.22
2022-12-29T08:41:24.347Z,1.90
2022-12-29T08:43:51.969Z,1.80
2022-12-29T08:46:20.659Z,1.80
2022-12-29T08:48:48.144Z,1.90
2022-12-29T08:51:20.147Z,1.90
2022-12-29T08:53:50.390Z,1.92
2022-12-29T08:56:18.513Z,2.10
2022-12-29T09:01:20.983Z,1.67
2022-12-29T09:06:40.202Z,1.90
2022-12-29T09:09:08.344Z,1.90
2022-12-29T09:11:35.845Z,1.90
2022-12-29T09:14:03.593Z,1.70
2022-12-29T09:16:31.175Z,1.52
2022-12-29T09:18:58.979Z,2.15
2022-12-29T09:21:26.455Z,1.65
2022-12-29T09:23:54.145Z,1.80
2022-12-29T09:26:21.703Z,1.50
2022-12-29T09:28:49.350Z,1.88
2022-12-29T09:31:16.861Z,1.90
2022-12-29T09:33:44.453Z,1.95
2022-12-29T09:36:11.896Z,1.92
2022-12-29T09:38:39.519Z,1.88
2022-12-29T09:41:19.683Z,1.80
2022-12-29T09:43:50.054Z,2.38
2022-12-29T09:46:28.341Z,2.05
2022-12-29T09:49:21.921Z,2.00
2022-12-29T09:51:56.024Z,1.65
2022-12-29T09:55:03.780Z,1.70
2022-12-29T09:57:37.811Z,1.67
2022-12-29T10:00:20.569Z,2.22
2022-12-29T10:02:56.256Z,1.55
2022-12-29T10:06:02.330Z,2.10
2022-12-29T10:08:56.069Z,1.80
2022-12-29T10:11:45.003Z,2.00
2022-12-29T10:14:21.875Z,1.77
2022-12-29T10:17:02.285Z,2.35
2022-12-29T10:19:38.810Z,2.10
2022-12-29T10:22:39.071Z,2.17
2022-12-29T10:25:18.893Z,2.08
2022-12-29T10:27:49.894Z,2.00
2022-12-29T10:30:19.353Z,2.33
2022-12-29T10:32:55.201Z,2.17
2022-12-29T10:35:27.803Z,2.15
2022-12-29T10:38:04.739Z,2.30
2022-12-29T10:41:15.115Z,1.88
2022-12-29T10:43:55.381Z,1.95
2022-12-29T10:46:26.520Z,2.03
2022-12-29T10:48:54.148Z,2.03
2022-12-29T10:51:29.600Z,2.10
2022-12-29T10:54:00.463Z,2.00
2022-12-29T10:56:53.385Z,2.10
2022-12-29T10:59:25.260Z,2.03
2022-12-29T11:02:01.888Z,1.98
2022-12-29T11:04:49.245Z,2.42
2022-12-29T11:07:25.115Z,1.60
2022-12-29T11:09:55.340Z,2.00
2022-12-29T11:12:29.618Z,1.90
2022-12-29T11:15:09.727Z,2.08
2022-12-29T11:18:00.764Z,2.08
2022-12-29T11:20:39.917Z,2.30
2022-12-29T11:23:25.030Z,2.20
2022-12-29T11:26:19.061Z,2.00
2022-12-29T11:29:05.062Z,1.75
2022-12-29T11:31:42.094Z,1.92
2022-12-29T11:34:10.323Z,1.75
2022-12-29T11:36:39.543Z,2.17
2022-12-29T11:39:13.744Z,1.70
2022-12-29T11:41:41.673Z,1.80
2022-12-29T11:44:13.728Z,2.05
2022-12-29T11:46:42.944Z,1.83
2022-12-29T11:49:14.877Z,1.88
2022-12-29T11:51:47.912Z,1.52
2022-12-29T11:54:38.279Z,1.77
2022-12-29T11:57:18.243Z,1.55
2022-12-29T11:59:57.259Z,1.90
2022-12-29T12:02:40.533Z,1.98
2022-12-29T12:05:13.713Z,1.85
2022-12-29T12:07:48.362Z,1.70
2022-12-29T12:10:31.174Z,1.90
2022-12-29T12:13:09.318Z,1.60
2022-12-29T12:15:56.784Z,1.70
2022-12-29T12:18:59.091Z,1.70
2022-12-29T12:21:33.413Z,2.00
2022-12-29T12:24:10.952Z,2.10
2022-12-29T12:26:59.868Z,1.70
2022-12-29T12:29:38.271Z,1.60
2022-12-29T12:32:15.224Z,1.50
2022-12-29T12:34:45.275Z,1.75
2022-12-29T12:37:24.927Z,1.40
2022-12-29T12:40:29.759Z,1.40
